Terminal Aerodrome Forecast
Issued by NWS

Home | Current Version | Previous Version | Text Only | Print | Product List | Glossary On
Versions: 1 2 3 4 5 6 7 8 9 10 11 12 13 14
000
FTUS45 KBYZ 252335 AAB
TAFLVM
TAF AMD
KLVM 252335Z 2600/2624 VRB06KT P6SM VCTS SCT090CB BKN150
     FM260300 VRB06KT P6SM SCT120=

USA.gov is the U.S. government's official web portal to all federal, state and local government web resources and services.